»·PEaware :: N738SP KLVM-KCPU

N738SP :: KLVM-KCPU

FLIGHT INFORMATION

Flight Status: Arrived
Operator: Privately registered:
United States
More flights under this callsign
Pilot: Pratham R. (19019)
Aircraft: CESSNA 152 AEROBAT
(C152)
More flights by this aircraft type
Origin: KLVM Mission
United States
Destination: KCPU Calaveras Co-Rasmussen
United States
More flights between these airports :: More routes between these airports
Route:
File this flight plan on PilotEdge
Remarks:
Altitude:
(Current/Filed)
7,500ft
Speed:
(Current/Filed)
0kts
Departed: 02-Dec-20 03:40 PM
Arrived: 02-Dec-20 04:22 PM
Distance/Time
Traveled:
641nm/0:41
Distance/Time
To Go:
Arrived

Flight Plot

Page will automatically refresh every two minutes.

Flight plan parsing failed; only flown route is shown


Map Options




Map Legend


Flown Route
Filed Route
Departure Airport
Arrival Airport
Navaid (VOR, NDB)
Fix

Horizontal Profiles

Position Reports

Time Latitude Longitude Heading Altitude Ground
Speed
02-Dec-20 15:38 37.710551 -121.810748 71 2615ft 73kts
02-Dec-20 15:39 37.717748 -121.785750 69 3283ft 74kts
02-Dec-20 15:40 37.723810 -121.759617 78 3878ft 77kts
02-Dec-20 15:41 37.728591 -121.732691 78 4439ft 79kts
02-Dec-20 15:42 37.733846 -121.705397 82 5004ft 80kts
02-Dec-20 15:43 37.730735 -121.677093 109 5490ft 84kts
02-Dec-20 15:44 37.724763 -121.648993 80 6008ft 86kts
02-Dec-20 15:45 37.736182 -121.622692 58 6540ft 86kts
02-Dec-20 15:46 37.748260 -121.596421 59 6982ft 88kts
02-Dec-20 15:47 37.761729 -121.570946 54 7431ft 87kts
02-Dec-20 15:48 37.778864 -121.544718 46 7480ft 100kts
02-Dec-20 15:49 37.796314 -121.516584 54 7434ft 101kts
02-Dec-20 15:50 37.812070 -121.487653 58 7477ft 101kts
02-Dec-20 15:51 37.826697 -121.458109 54 7588ft 99kts
02-Dec-20 15:52 37.843017 -121.428555 52 7565ft 104kts
02-Dec-20 15:53 37.861374 -121.400400 50 7564ft 102kts
02-Dec-20 15:54 37.875221 -121.369546 60 7595ft 103kts
02-Dec-20 15:55 37.887301 -121.336558 77 7576ft 102kts
02-Dec-20 15:57 37.890816 -121.300842 89 7540ft 104kts
02-Dec-20 15:58 37.892033 -121.264540 80 7526ft 102kts
02-Dec-20 15:59 37.900737 -121.230263 67 7573ft 99kts
02-Dec-20 16:00 37.914238 -121.199136 52 7600ft 101kts
02-Dec-20 16:01 37.936558 -121.173341 40 7553ft 111kts
02-Dec-20 16:02 37.962360 -121.152887 14 7603ft 115kts
02-Dec-20 16:03 37.987517 -121.134599 66 7603ft 109kts
02-Dec-20 16:04 37.988722 -121.100453 76 7590ft 102kts
02-Dec-20 16:05 38.011382 -121.077684 37 7552ft 104kts
02-Dec-20 16:06 38.034280 -121.054781 43 7554ft 104kts
02-Dec-20 16:07 38.054121 -121.028408 42 7578ft 104kts
02-Dec-20 16:08 38.074895 -121.002542 62 7543ft 105kts
02-Dec-20 16:09 38.085174 -120.968434 66 7539ft 103kts
02-Dec-20 16:10 38.094387 -120.933698 74 7498ft 105kts
02-Dec-20 16:11 38.103752 -120.899519 64 7115ft 103kts
02-Dec-20 16:12 38.111029 -120.865715 82 6752ft 97kts
02-Dec-20 16:13 38.117920 -120.832684 76 6235ft 97kts
02-Dec-20 16:13 38.123529 -120.805755 78 5852ft 89kts
02-Dec-20 16:15 38.131339 -120.768992 77 5149ft 96kts
02-Dec-20 16:16 38.133629 -120.735953 87 4492ft 91kts
02-Dec-20 16:16 38.132950 -120.709677 109 3953ft 85kts
02-Dec-20 16:17 38.124594 -120.684084 101 3387ft 77kts
02-Dec-20 16:19 38.133703 -120.655827 41 2354ft 78kts
02-Dec-20 16:19 38.151571 -120.667799 323 2176ft 86kts
02-Dec-20 16:20 38.158329 -120.659132 136 1577ft 72kts
02-Dec-20 16:21 38.146331 -120.648387 145 1319ft 19kts
02-Dec-20 16:22 38.145507 -120.646339 56 1321ft 0kts
02-Dec-20 16:23 38.145507 -120.646339 56 1321ft 0kts
02-Dec-20 16:24 38.145507 -120.646339 56 1321ft 0kts
02-Dec-20 16:25 38.145507 -120.646339 56 1321ft 0kts
02-Dec-20 16:26 38.145507 -120.646339 56 1321ft 0kts
02-Dec-20 16:27 38.145507 -120.646339 56 1321ft 0kts
02-Dec-20 16:28 38.145507 -120.646339 56 1321ft 0kts
02-Dec-20 16:29 38.145507 -120.646339 56 1321ft 0kts
02-Dec-20 16:30 38.145507 -120.646339 56 1321ft 0kts
02-Dec-20 16:31 38.145507 -120.646339 56 1321ft 0kts
02-Dec-20 16:32 38.145507 -120.646339 56 1321ft 0kts
02-Dec-20 16:33 38.145507 -120.646339 56 1321ft 0kts
02-Dec-20 16:34 38.145507 -120.646339 56 1321ft 0kts
02-Dec-20 16:35 38.145507 -120.646339 56 1321ft 0kts

Navigation Log

Ident Type
Flight plan parsing failed, navigation log unavailable